createdAt,value
2022-08-19T00:02:13.405Z,8.98
2022-08-19T00:04:41.206Z,8.25
2022-08-19T00:07:08.751Z,8.43
2022-08-19T00:09:36.564Z,8.90
2022-08-19T00:12:04.327Z,9.05
2022-08-19T00:14:32.504Z,8.38
2022-08-19T00:17:00.437Z,8.70
2022-08-19T00:19:27.497Z,8.13
2022-08-19T00:21:55.418Z,7.35
2022-08-19T00:24:22.966Z,7.95
2022-08-19T00:26:51.403Z,8.55
2022-08-19T00:29:21.805Z,7.50
2022-08-19T00:31:50.776Z,8.38
2022-08-19T00:34:18.160Z,9.05
2022-08-19T00:36:46.024Z,8.43
2022-08-19T00:39:16.400Z,8.93
2022-08-19T00:41:47.890Z,8.27
2022-08-19T00:44:27.194Z,9.20
2022-08-19T00:46:58.476Z,9.02
2022-08-19T00:49:38.729Z,8.13
2022-08-19T00:52:17.546Z,8.23
2022-08-19T00:54:52.392Z,9.13
2022-08-19T00:57:31.010Z,9.77
2022-08-19T01:00:02.300Z,9.60
2022-08-19T01:02:33.291Z,10.05
2022-08-19T01:05:05.817Z,10.00
2022-08-19T01:07:37.647Z,9.50
2022-08-19T01:10:09.952Z,9.38
2022-08-19T01:12:38.037Z,9.82
2022-08-19T01:15:10.777Z,10.10
2022-08-19T01:17:41.084Z,10.60
2022-08-19T01:20:17.437Z,9.57
2022-08-19T01:22:52.205Z,10.20
2022-08-19T01:25:25.078Z,9.82
2022-08-19T01:27:53.851Z,10.20
2022-08-19T01:30:29.608Z,9.02
2022-08-19T01:32:57.463Z,8.95
2022-08-19T01:35:27.749Z,9.48
2022-08-19T01:37:59.959Z,9.68
2022-08-19T01:40:32.524Z,10.05
2022-08-19T01:43:00.645Z,10.02
2022-08-19T01:45:31.197Z,9.48
2022-08-19T01:48:02.344Z,10.02
2022-08-19T01:50:32.663Z,10.30
2022-08-19T01:53:02.466Z,10.70
2022-08-19T01:55:33.830Z,10.23
2022-08-19T01:58:06.364Z,9.57
2022-08-19T02:00:35.956Z,11.27
2022-08-19T02:03:03.092Z,11.45
2022-08-19T02:05:30.241Z,10.90
2022-08-19T02:07:57.897Z,10.88
2022-08-19T02:10:25.051Z,10.75
2022-08-19T02:12:52.546Z,10.20
2022-08-19T02:15:20.991Z,10.20
2022-08-19T02:17:48.900Z,10.95
2022-08-19T02:20:16.739Z,10.05
2022-08-19T02:22:44.578Z,11.52
2022-08-19T02:25:14.091Z,11.13
2022-08-19T02:27:42.167Z,12.10
2022-08-19T02:30:14.600Z,11.10
2022-08-19T02:32:44.407Z,11.52
2022-08-19T02:35:14.201Z,11.77
2022-08-19T02:38:02.073Z,10.45
2022-08-19T02:40:33.057Z,12.65
2022-08-19T02:42:59.982Z,11.43
2022-08-19T02:45:26.980Z,11.20
2022-08-19T02:47:54.107Z,11.85
2022-08-19T02:50:21.079Z,11.10
2022-08-19T02:52:48.077Z,10.95
2022-08-19T02:55:15.067Z,12.10
2022-08-19T02:57:42.957Z,11.35
2022-08-19T03:00:13.734Z,11.30
2022-08-19T03:02:41.483Z,11.52
2022-08-19T03:05:10.646Z,11.65
2022-08-19T03:07:38.373Z,12.60
2022-08-19T03:10:06.817Z,11.35
2022-08-19T03:12:38.704Z,12.93
2022-08-19T03:15:09.835Z,11.68
2022-08-19T03:17:37.077Z,11.32
2022-08-19T03:20:05.819Z,11.25
2022-08-19T03:22:32.756Z,11.15
2022-08-19T03:25:00.483Z,12.07
2022-08-19T03:27:32.533Z,12.40
2022-08-19T03:30:02.163Z,10.95
2022-08-19T03:32:32.562Z,12.05
2022-08-19T03:35:00.981Z,11.77
2022-08-19T03:37:27.940Z,10.82
2022-08-19T03:39:54.932Z,11.68
2022-08-19T03:42:38.143Z,11.95
2022-08-19T03:45:09.576Z,11.73
2022-08-19T03:47:36.514Z,12.15
2022-08-19T03:50:04.432Z,11.57
2022-08-19T03:52:31.696Z,12.63
2022-08-19T03:54:58.677Z,11.43
2022-08-19T03:57:32.013Z,11.40
2022-08-19T04:00:12.886Z,10.80
2022-08-19T04:02:40.774Z,10.95
2022-08-19T04:05:09.240Z,10.75
2022-08-19T04:07:36.611Z,10.15
2022-08-19T04:10:05.672Z,10.60
2022-08-19T04:12:33.233Z,11.55
2022-08-19T04:15:00.291Z,11.07
2022-08-19T04:17:27.261Z,11.45
2022-08-19T04:19:54.234Z,11.15
2022-08-19T04:22:21.248Z,10.32
2022-08-19T04:24:48.227Z,11.85
2022-08-19T04:27:16.026Z,11.18
2022-08-19T04:29:42.951Z,10.23
2022-08-19T04:32:11.882Z,10.85
2022-08-19T04:35:01.455Z,10.60
2022-08-19T04:37:35.149Z,10.82
2022-08-19T04:40:22.736Z,10.10
2022-08-19T04:42:49.829Z,11.25
2022-08-19T04:45:17.567Z,11.00
2022-08-19T04:47:49.186Z,11.73
2022-08-19T04:50:27.491Z,10.27
2022-08-19T04:52:56.404Z,10.52
2022-08-19T04:55:26.394Z,10.10
2022-08-19T04:57:54.009Z,9.52
2022-08-19T05:00:21.008Z,9.95
2022-08-19T05:02:48.004Z,9.70
2022-08-19T05:05:15.116Z,8.77
2022-08-19T05:07:42.092Z,10.40
2022-08-19T05:10:09.504Z,8.90
2022-08-19T05:12:36.590Z,9.80
2022-08-19T05:15:06.698Z,8.93
2022-08-19T05:17:38.377Z,8.93
2022-08-19T05:20:26.622Z,8.25
2022-08-19T05:22:53.870Z,9.18
2022-08-19T05:25:22.619Z,8.75
2022-08-19T05:27:49.779Z,9.27
2022-08-19T05:30:17.921Z,9.77
2022-08-19T05:32:45.515Z,8.55
2022-08-19T05:35:13.079Z,9.18
2022-08-19T05:37:41.554Z,8.35
2022-08-19T05:40:10.761Z,7.68
2022-08-19T05:42:38.546Z,7.78
2022-08-19T05:45:06.469Z,7.78
2022-08-19T05:47:33.531Z,7.53
2022-08-19T05:50:02.767Z,7.70
2022-08-19T05:52:32.470Z,7.47
2022-08-19T05:55:00.585Z,7.20
2022-08-19T05:57:29.821Z,7.00
2022-08-19T05:59:59.082Z,7.68
2022-08-19T06:02:28.458Z,7.20
2022-08-19T06:04:55.439Z,7.25
2022-08-19T06:07:22.723Z,7.28
2022-08-19T06:09:59.327Z,7.05
2022-08-19T06:12:33.787Z,7.78
2022-08-19T06:15:02.860Z,7.05
2022-08-19T06:17:31.713Z,7.13
2022-08-19T06:20:00.145Z,7.03
2022-08-19T06:22:28.243Z,6.57
2022-08-19T06:24:57.056Z,7.10
2022-08-19T06:27:24.532Z,6.30
2022-08-19T06:29:51.574Z,6.63
2022-08-19T06:32:20.079Z,6.93
2022-08-19T06:34:48.000Z,6.65
2022-08-19T06:37:15.603Z,6.70
2022-08-19T06:39:45.254Z,8.48
2022-08-19T06:42:17.618Z,7.10
2022-08-19T06:44:49.281Z,6.75
2022-08-19T06:47:23.428Z,6.57
2022-08-19T06:50:01.180Z,6.90
2022-08-19T06:52:28.710Z,7.20
2022-08-19T06:54:57.170Z,7.82
2022-08-19T06:57:27.827Z,7.18
2022-08-19T06:59:56.972Z,6.72
2022-08-19T07:02:27.340Z,6.63
2022-08-19T07:04:54.874Z,5.70
2022-08-19T07:07:23.272Z,6.30
2022-08-19T07:09:59.974Z,6.43
2022-08-19T07:12:33.945Z,6.38
2022-08-19T07:15:05.289Z,6.43
2022-08-19T07:17:34.690Z,5.70
2022-08-19T07:20:06.968Z,7.20
2022-08-19T07:22:36.921Z,7.10
2022-08-19T07:25:06.476Z,7.03
2022-08-19T07:27:34.922Z,7.03
2022-08-19T07:30:02.212Z,6.80
2022-08-19T07:32:29.333Z,6.68
2022-08-19T07:34:57.142Z,6.28
2022-08-19T07:37:32.473Z,7.00
2022-08-19T07:40:01.234Z,7.47
2022-08-19T07:42:30.798Z,7.55
2022-08-19T07:44:59.470Z,6.40
2022-08-19T07:47:50.189Z,6.50
2022-08-19T07:50:14.313Z,6.18
2022-08-19T07:52:41.782Z,6.45
2022-08-19T07:55:13.596Z,7.00
2022-08-19T07:57:58.411Z,6.20
2022-08-19T08:00:25.663Z,7.03
2022-08-19T08:02:55.225Z,7.00
2022-08-19T08:05:44.210Z,6.97
2022-08-19T08:08:31.428Z,6.57
2022-08-19T08:11:00.251Z,8.10
2022-08-19T08:13:28.116Z,7.75
2022-08-19T08:15:56.743Z,8.32
2022-08-19T08:18:27.520Z,7.40
2022-08-19T08:20:56.951Z,7.28
2022-08-19T08:23:26.877Z,7.50
2022-08-19T08:25:59.161Z,7.30
2022-08-19T08:28:29.679Z,6.63
2022-08-19T08:30:59.017Z,7.47
2022-08-19T08:33:34.044Z,7.97
2022-08-19T08:36:14.249Z,7.47
2022-08-19T08:38:44.846Z,8.70
2022-08-19T08:41:35.927Z,7.68
2022-08-19T08:44:05.755Z,7.43
2022-08-19T08:46:43.377Z,8.05
2022-08-19T08:49:44.827Z,6.78
2022-08-19T08:52:32.083Z,7.10
2022-08-19T08:55:10.118Z,6.88
2022-08-19T08:57:49.815Z,7.00
2022-08-19T09:00:23.415Z,7.38
2022-08-19T09:02:51.665Z,6.63
2022-08-19T09:05:22.702Z,7.60
2022-08-19T09:08:06.239Z,7.90
2022-08-19T09:10:47.368Z,7.85
2022-08-19T09:14:40.666Z,7.75
2022-08-19T09:17:09.055Z,7.35
2022-08-19T09:19:53.558Z,7.80
2022-08-19T09:22:25.804Z,7.88
2022-08-19T09:24:55.958Z,8.10
2022-08-19T09:27:42.245Z,8.02
2022-08-19T09:30:17.105Z,8.15
2022-08-19T09:32:46.374Z,7.50
2022-08-19T09:35:16.017Z,7.72
2022-08-19T09:37:44.516Z,8.10
2022-08-19T09:40:13.656Z,7.70
2022-08-19T09:42:50.379Z,8.25
2022-08-19T09:45:22.645Z,7.57
2022-08-19T09:47:54.110Z,6.95
2022-08-19T09:50:23.072Z,7.10
2022-08-19T09:52:54.193Z,6.63
2022-08-19T09:55:31.949Z,6.38
2022-08-19T09:58:03.095Z,6.30
2022-08-19T10:00:32.019Z,5.72
2022-08-19T10:02:59.370Z,6.47
2022-08-19T10:05:45.077Z,6.55
2022-08-19T10:08:23.921Z,6.70
2022-08-19T10:10:55.904Z,6.63
2022-08-19T10:13:29.432Z,6.38
2022-08-19T10:16:03.990Z,6.30
2022-08-19T10:18:31.224Z,6.18
2022-08-19T10:21:11.800Z,7.18
2022-08-19T10:23:44.833Z,6.25
2022-08-19T10:26:15.571Z,7.50
2022-08-19T10:28:43.214Z,6.57
2022-08-19T10:32:00.011Z,6.93
2022-08-19T10:34:17.551Z,6.38
2022-08-19T10:36:56.716Z,6.93
2022-08-19T10:39:31.152Z,6.05
2022-08-19T10:41:58.940Z,6.70
2022-08-19T10:44:31.963Z,6.63
2022-08-19T10:47:00.324Z,5.57
2022-08-19T10:49:28.016Z,6.35
2022-08-19T10:52:18.548Z,7.88
2022-08-19T10:55:08.675Z,6.60
2022-08-19T10:57:59.367Z,6.68
2022-08-19T11:00:25.069Z,6.47
2022-08-19T11:02:52.704Z,7.28
2022-08-19T11:05:20.462Z,6.53
2022-08-19T11:07:52.603Z,6.82
2022-08-19T11:10:21.851Z,6.05
2022-08-19T11:12:49.471Z,7.18
2022-08-19T11:15:17.157Z,6.28
2022-08-19T11:17:44.727Z,6.20
2022-08-19T11:20:15.486Z,6.25
2022-08-19T11:22:43.263Z,6.47
2022-08-19T11:25:12.335Z,6.43
2022-08-19T11:27:45.603Z,6.93
2022-08-19T11:30:14.507Z,7.00
2022-08-19T11:32:48.577Z,6.10
2022-08-19T11:35:17.271Z,6.70
2022-08-19T11:37:44.291Z,6.32
2022-08-19T11:40:12.391Z,6.00
2022-08-19T11:42:57.858Z,6.15
2022-08-19T11:45:27.365Z,6.88
2022-08-19T11:47:55.140Z,6.22
2022-08-19T11:50:24.344Z,6.22
2022-08-19T11:52:55.418Z,6.32
2022-08-19T11:55:22.454Z,5.85
2022-08-19T11:57:49.534Z,6.13
2022-08-19T12:00:16.830Z,7.07
2022-08-19T12:02:43.903Z,6.88
2022-08-19T12:05:12.938Z,6.45
2022-08-19T12:07:43.445Z,6.63
2022-08-19T12:10:11.658Z,5.78
2022-08-19T12:12:43.510Z,6.07
2022-08-19T12:15:11.952Z,5.57
2022-08-19T12:17:39.400Z,5.82
2022-08-19T12:20:08.006Z,6.45
2022-08-19T12:22:35.979Z,6.35
2022-08-19T12:25:03.712Z,6.22
2022-08-19T12:27:35.731Z,6.30
2022-08-19T12:30:11.917Z,6.57
2022-08-19T12:32:39.292Z,5.85
2022-08-19T12:35:09.170Z,5.75
2022-08-19T12:37:36.303Z,5.70
2022-08-19T12:40:04.529Z,6.43
2022-08-19T12:42:31.565Z,6.90
2022-08-19T12:44:58.580Z,6.05
2022-08-19T12:47:27.458Z,6.40
2022-08-19T12:49:56.016Z,6.50
2022-08-19T12:52:28.173Z,6.00
2022-08-19T12:54:57.438Z,6.30
2022-08-19T12:57:32.838Z,5.97
2022-08-19T13:00:01.959Z,6.65
2022-08-19T13:02:33.159Z,5.93
2022-08-19T13:05:09.389Z,5.25
2022-08-19T13:07:39.437Z,6.07
2022-08-19T13:10:10.012Z,5.75
2022-08-19T13:12:37.038Z,6.18
2022-08-19T13:15:10.847Z,6.00
2022-08-19T13:17:39.938Z,5.07
2022-08-19T13:20:12.203Z,5.63
2022-08-19T13:22:39.740Z,5.35
2022-08-19T13:25:09.069Z,5.50
2022-08-19T13:27:37.299Z,5.60
2022-08-19T13:30:26.551Z,5.70
2022-08-19T13:33:12.324Z,5.65
2022-08-19T13:35:50.650Z,6.32
2022-08-19T13:38:22.191Z,6.45
2022-08-19T13:40:52.475Z,5.95
2022-08-19T13:43:23.832Z,6.03
2022-08-19T13:45:57.104Z,6.63
2022-08-19T13:48:27.571Z,5.65
2022-08-19T13:50:55.216Z,6.35
2022-08-19T13:53:22.516Z,5.80
2022-08-19T13:55:51.402Z,6.00
2022-08-19T13:58:18.493Z,6.32
2022-08-19T14:00:47.799Z,5.85
2022-08-19T14:03:14.999Z,5.88
2022-08-19T14:05:42.072Z,5.60
2022-08-19T14:08:10.330Z,6.32
2022-08-19T14:10:37.374Z,6.15
2022-08-19T14:13:05.618Z,5.70
2022-08-19T14:15:33.233Z,6.15
2022-08-19T14:18:00.567Z,6.10
2022-08-19T14:20:28.240Z,5.57
2022-08-19T14:22:55.799Z,6.28
2022-08-19T14:25:27.760Z,6.30
2022-08-19T14:27:55.318Z,5.80
2022-08-19T14:30:35.518Z,5.88
2022-08-19T14:33:03.702Z,5.05
2022-08-19T14:35:35.674Z,6.10
2022-08-19T14:38:07.317Z,5.68
2022-08-19T14:40:35.685Z,5.72
2022-08-19T14:43:06.083Z,5.60
2022-08-19T14:45:38.011Z,5.03
2022-08-19T14:48:12.517Z,5.65
2022-08-19T14:50:46.559Z,5.60
2022-08-19T14:53:13.590Z,6.00
2022-08-19T14:55:47.617Z,4.97
2022-08-19T14:58:29.247Z,6.03
2022-08-19T15:01:01.165Z,5.22
2022-08-19T15:03:29.462Z,5.45
2022-08-19T15:05:58.755Z,4.85
2022-08-19T15:08:27.045Z,4.47
2022-08-19T15:10:54.222Z,5.00
2022-08-19T15:13:22.260Z,4.88
2022-08-19T15:15:49.814Z,5.25
2022-08-19T15:18:16.838Z,5.97
2022-08-19T15:20:46.748Z,4.82
2022-08-19T15:23:17.802Z,4.82
2022-08-19T15:25:45.044Z,5.10
2022-08-19T15:28:12.575Z,5.80
2022-08-19T15:30:41.214Z,5.32
2022-08-19T15:33:08.390Z,5.63
2022-08-19T15:35:35.389Z,4.80
2022-08-19T15:38:02.414Z,4.60
2022-08-19T15:40:29.496Z,5.07
2022-08-19T15:42:58.810Z,4.63
2022-08-19T15:45:32.570Z,4.88
2022-08-19T15:48:02.253Z,4.80
2022-08-19T15:50:32.089Z,4.97
2022-08-19T15:53:03.509Z,5.35
2022-08-19T15:55:35.595Z,4.30
2022-08-19T15:58:28.500Z,5.32
2022-08-19T16:01:21.607Z,4.70
2022-08-19T16:04:14.903Z,5.72
2022-08-19T16:06:51.315Z,5.70
2022-08-19T16:09:26.466Z,4.57
2022-08-19T16:12:02.735Z,4.97
2022-08-19T16:14:33.297Z,4.85
2022-08-19T16:17:00.301Z,5.00
2022-08-19T16:19:27.605Z,5.25
2022-08-19T16:21:56.930Z,4.72
2022-08-19T16:24:26.908Z,5.38
2022-08-19T16:26:54.727Z,4.47
2022-08-19T16:29:34.549Z,4.32
2022-08-19T16:32:10.712Z,5.57
2022-08-19T16:34:40.138Z,4.80
2022-08-19T16:37:07.274Z,5.30
2022-08-19T16:39:34.267Z,5.25
2022-08-19T16:42:01.436Z,4.55
2022-08-19T16:44:29.917Z,5.18
2022-08-19T16:46:59.825Z,5.30
2022-08-19T16:49:53.657Z,4.90
2022-08-19T16:52:16.788Z,5.00
2022-08-19T16:54:44.691Z,4.78
2022-08-19T16:57:13.065Z,4.65
2022-08-19T16:59:44.177Z,4.68
2022-08-19T17:02:23.296Z,5.28
2022-08-19T17:04:58.487Z,4.85
2022-08-19T17:07:28.385Z,5.60
2022-08-19T17:09:56.166Z,4.68
2022-08-19T17:12:31.559Z,4.53
2022-08-19T17:15:05.291Z,4.50
2022-08-19T17:17:33.000Z,4.57
2022-08-19T17:20:01.420Z,4.25
2022-08-19T17:22:28.838Z,4.40
2022-08-19T17:24:58.055Z,4.68
2022-08-19T17:27:31.390Z,4.65
2022-08-19T17:30:02.520Z,4.32
2022-08-19T17:32:33.231Z,4.53
2022-08-19T17:35:00.256Z,4.78
2022-08-19T17:37:28.204Z,4.35
2022-08-19T17:39:55.632Z,4.60
2022-08-19T17:42:22.668Z,4.85
2022-08-19T17:44:50.757Z,5.10
2022-08-19T17:47:19.390Z,4.50
2022-08-19T17:49:46.627Z,4.72
2022-08-19T17:52:13.639Z,4.97
2022-08-19T17:54:40.633Z,4.63
2022-08-19T17:57:08.510Z,4.80
2022-08-19T17:59:37.377Z,5.25
2022-08-19T18:02:07.564Z,4.93
2022-08-19T18:04:38.468Z,4.93
2022-08-19T18:07:06.298Z,4.10
2022-08-19T18:09:41.313Z,4.53
2022-08-19T18:12:11.723Z,5.10
2022-08-19T18:14:40.555Z,5.03
2022-08-19T18:17:13.622Z,4.80
2022-08-19T18:19:43.576Z,4.82
2022-08-19T18:22:25.248Z,4.82
2022-08-19T18:24:52.537Z,4.95
2022-08-19T18:27:19.889Z,6.13
2022-08-19T18:29:46.874Z,4.57
2022-08-19T18:32:18.168Z,4.70
2022-08-19T18:34:51.408Z,5.15
2022-08-19T18:37:18.996Z,5.38
2022-08-19T18:40:18.673Z,6.30
2022-08-19T18:43:05.394Z,5.38
2022-08-19T18:45:51.191Z,5.00
2022-08-19T18:48:36.931Z,5.43
2022-08-19T18:51:04.319Z,4.70
2022-08-19T18:53:34.981Z,5.18
2022-08-19T18:56:02.265Z,5.30
2022-08-19T18:58:35.008Z,5.38
2022-08-19T19:01:21.887Z,4.63
2022-08-19T19:03:53.439Z,5.53
2022-08-19T19:06:29.867Z,6.22
2022-08-19T19:08:57.710Z,5.03
2022-08-19T19:11:30.730Z,5.90
2022-08-19T19:13:59.590Z,4.82
2022-08-19T19:16:26.889Z,5.00
2022-08-19T19:18:53.827Z,4.40
2022-08-19T19:21:23.166Z,5.75
2022-08-19T19:23:54.811Z,5.55
2022-08-19T19:26:22.816Z,5.07
2022-08-19T19:28:51.392Z,5.38
2022-08-19T19:31:26.715Z,4.70
2022-08-19T19:33:55.785Z,5.53
2022-08-19T19:36:24.082Z,5.40
2022-08-19T19:38:51.180Z,4.63
2022-08-19T19:41:25.069Z,5.13
2022-08-19T19:44:23.229Z,4.63
2022-08-19T19:46:45.321Z,6.05
2022-08-19T19:49:13.196Z,5.38
2022-08-19T19:51:42.198Z,4.50
2022-08-19T19:54:21.739Z,6.03
2022-08-19T19:56:50.561Z,4.57
2022-08-19T19:59:18.636Z,4.70
2022-08-19T20:01:48.656Z,5.00
2022-08-19T20:04:17.382Z,4.97
2022-08-19T20:06:46.327Z,4.57
2022-08-19T20:09:19.700Z,4.97
2022-08-19T20:11:53.611Z,4.80
2022-08-19T20:14:32.888Z,4.50
2022-08-19T20:17:00.444Z,4.80
2022-08-19T20:19:34.267Z,4.43
2022-08-19T20:22:01.902Z,4.57
2022-08-19T20:24:35.229Z,4.55
2022-08-19T20:27:03.814Z,5.07
2022-08-19T20:29:39.356Z,4.55
2022-08-19T20:32:10.163Z,4.80
2022-08-19T20:34:37.723Z,5.03
2022-08-19T20:37:04.898Z,4.63
2022-08-19T20:39:32.078Z,4.75
2022-08-19T20:42:00.744Z,4.22
2022-08-19T20:44:27.756Z,4.82
2022-08-19T20:46:57.507Z,5.03
2022-08-19T20:49:26.946Z,5.28
2022-08-19T20:51:57.896Z,5.38
2022-08-19T20:54:25.893Z,4.57
2022-08-19T20:56:53.944Z,4.50
2022-08-19T20:59:23.038Z,5.22
2022-08-19T21:01:53.638Z,4.78
2022-08-19T21:04:21.743Z,5.03
2022-08-19T21:06:50.506Z,5.28
2022-08-19T21:09:17.737Z,5.03
2022-08-19T21:11:44.769Z,4.97
2022-08-19T21:14:12.856Z,5.22
2022-08-19T21:16:39.882Z,4.30
2022-08-19T21:19:06.824Z,4.55
2022-08-19T21:21:35.006Z,4.95
2022-08-19T21:24:02.274Z,4.72
2022-08-19T21:26:29.256Z,5.55
2022-08-19T21:28:56.274Z,4.72
2022-08-19T21:31:23.292Z,5.20
2022-08-19T21:33:50.236Z,5.00
2022-08-19T21:36:17.586Z,4.60
2022-08-19T21:38:44.576Z,4.82
2022-08-19T21:41:11.572Z,4.63
2022-08-19T21:43:39.112Z,5.43
2022-08-19T21:46:06.973Z,5.38
2022-08-19T21:48:34.103Z,4.90
2022-08-19T21:51:01.046Z,4.85
2022-08-19T21:53:34.306Z,5.22
2022-08-19T21:56:03.614Z,4.75
2022-08-19T21:58:30.978Z,4.85
2022-08-19T22:01:05.977Z,5.32
2022-08-19T22:03:35.876Z,4.43
2022-08-19T22:06:02.944Z,4.60
2022-08-19T22:08:31.482Z,4.78
2022-08-19T22:11:01.424Z,5.05
2022-08-19T22:13:29.874Z,5.22
2022-08-19T22:16:06.424Z,4.80
2022-08-19T22:18:35.106Z,4.70
2022-08-19T22:21:06.413Z,4.50
2022-08-19T22:23:36.554Z,5.05
2022-08-19T22:26:03.639Z,4.88
2022-08-19T22:28:30.626Z,4.50
2022-08-19T22:30:57.780Z,4.78
2022-08-19T22:33:26.209Z,4.95
2022-08-19T22:35:54.548Z,4.93
2022-08-19T22:38:22.915Z,3.88
2022-08-19T22:40:51.867Z,4.25
2022-08-19T22:43:26.065Z,4.25
2022-08-19T22:45:55.776Z,4.13
2022-08-19T22:48:28.143Z,4.57
2022-08-19T22:51:14.855Z,4.63
2022-08-19T22:53:46.046Z,4.93
2022-08-19T22:56:15.701Z,4.05
2022-08-19T22:58:43.420Z,5.00
2022-08-19T23:01:16.321Z,4.03
2022-08-19T23:03:57.372Z,4.32
2022-08-19T23:06:33.059Z,4.45
2022-08-19T23:09:04.538Z,3.88
2022-08-19T23:11:39.869Z,4.70
2022-08-19T23:14:10.457Z,4.25
2022-08-19T23:16:37.406Z,4.45
2022-08-19T23:19:07.271Z,4.47
2022-08-19T23:21:36.264Z,4.60
2022-08-19T23:24:04.214Z,4.68
2022-08-19T23:26:35.580Z,4.45
2022-08-19T23:29:22.684Z,5.38
2022-08-19T23:31:49.874Z,4.90
2022-08-19T23:34:18.072Z,5.20
2022-08-19T23:36:46.358Z,4.22
2022-08-19T23:39:13.317Z,4.90
2022-08-19T23:41:40.284Z,5.00
2022-08-19T23:44:14.584Z,4.15
2022-08-19T23:46:51.871Z,4.95
2022-08-19T23:49:21.774Z,5.32
2022-08-19T23:51:48.716Z,4.40
2022-08-19T23:54:15.681Z,4.63
2022-08-19T23:56:42.681Z,4.38
2022-08-19T23:59:09.652Z,4.10
